Heat Index [SAI AWOS/ASOS Display]_________FAA Disclaimer: "Not for use in aviation at this time______________" Untitled Document
Indianapolis Executive Airport IN
230
13:47
17/12/15
11
N/A
N/A
29.98
N/A
922
24(F), -4(C)
17(F), -8(C)
13 F
74%
OVC041
10
N/A
N/A
N/A
13:47 zulu Wind 230 at 11 Knots, Altimeter 29.98
METAR KTYQ 151347Z AUTO 23011KT 10SM OVC041 M04/M08 A2998 A02
METAR:
FAA Disclaimer--Advisory Use ONLY, not for flight info-- 2/21/2009: Airport FBO 317-769-3288... New URL for smartphones... http://www.saiawos2.com/TYQ
INFO:
Wind Direction:
Wind Speed:
Wind Gust:
Wind Variable:
Altimeter:
Dens Alt:
Elev:
Temp:
Dwpt:
Wind Chill
Rel Humidity:
Ceiling:
Visibility:
Prsnt Wea:
PCPN:
Remarks:
How to read the WebPage